首页
METAR-TAF:

METAR-TAF

机场 :

朱諾, 阿拉斯加州, 美国

纬度: 58-21-17N, 经度: 134-34-34W, 海拔: 6米

当前天气观测

该预报发布于20分钟前的06:53 UTC
风速8节,风向
温度 16°C
湿度 77%
气压 1020 hPa
能見度: 16.1公里
少量云层高于1600英尺
多云层高于2700英尺
阴天层高于8000英尺

METAR: PAJN 220653Z 08008KT 10SM FEW016 BKN027 OVC080 16/12 A3011 RMK AO2 SLP195 OCNL BINOVC T01610122 $

时间: 23:13 (07:13 UTC)

预报

该预报发布于1小时和46分钟前的05:27 UTC
预报有效从22日的 06点(UTC)到 23日的 06点(UTC)
风速8节,风向
能見度: 10公里
少量云层高于2500英尺
多云层高于3500英尺
多云层高于5000英尺
小阵雨
从 22日的 1200点(UTC)
风速2节,风向
能見度: 10公里
散云层高于1500英尺
阴天层高于4000英尺
从 22日的 1800点(UTC)
风速7节,风向西转西南
能見度: 10公里
阴天层高于5000英尺

TAF: PAJN 220527Z 2206/2306 08008KT P6SM -SHRA FEW025 BKN035 BKN050 FM221200 08002KT P6SM SCT015 OVC040 FM221800 24007KT P6SM OVC050

超过4000个机场的气象观测和天气预报(METAR&TAF报告)。

可查询的气象台以黄色和红色小点在地图上表示。

将鼠标移到小点上方,可查看气象台名称。

然后点击查看天气观测和预报。

如需切换地图:点击带黑十字的绿色按钮放大地图;点击带横线的绿色按钮缩小地图;或者点击绿色箭头查看邻近地区的地图。


METAR-TAF: